Time;durP1;ratioP1;P1;durP2;ratioP2;P2;SDS_P1;SDS_P2;PMS_P1;PMS_P2;Temp;Humidity;BMP_temperature;BMP_pressure;BME280_temperature;BME280_humidity;BME280_pressure;Samples;Min_cycle;Max_cycle;Signal;HPM_P1;HPM_P2
2021/12/12 00:01:17;;;;;;;;;;;;;;;7.15;90.96;93900.06;5116395;28;1901;-47
2021/12/12 00:03:50;;;;;;;;;;;;;;;6.99;91.33;93878.84;5116899;28;1089;-47
2021/12/12 00:06:18;;;;;;;;;;;;;;;6.97;92.04;93896.78;5116702;28;1051;-47
2021/12/12 00:08:48;;;;;;;;;;;;;;;7.09;91.55;93911.34;5116614;28;1032;-47
2021/12/12 00:11:17;;;;;;;;;;;;;;;7.05;90.99;93910.03;5116405;28;1080;-47
2021/12/12 00:13:45;;;;;;;;;;;;;;;7.01;91.27;93920.19;5115884;28;1083;-47
2021/12/12 00:16:12;;;;;;;;;;;;;;;6.98;91.13;93931.16;5116592;28;1040;-47
2021/12/12 00:18:39;;;;;;;;;;;;;;;6.92;91.00;93933.66;5116556;28;1144;-47
2021/12/12 00:21:06;;;;;;;;;;;;;;;6.72;91.20;93931.38;5116352;28;1918;-47
2021/12/12 00:23:32;;;;;;;;;;;;;;;6.75;91.38;93960.22;5116484;27;1008;-47
2021/12/12 00:25:58;;;;;;;;;;;;;;;6.80;90.82;93967.72;5116112;28;1080;-46
2021/12/12 00:28:25;;;;;;;;;;;;;;;6.83;91.05;93968.22;5115871;27;1036;-47
2021/12/12 00:30:53;;;;;;;;;;;;;;;6.82;90.53;93969.19;5115694;28;1978;-47
2021/12/12 00:33:20;;;;;;;;;;;;;;;6.80;90.57;93973.84;5116412;28;984;-47
2021/12/12 00:35:48;;;;;;;;;;;;;;;6.84;90.17;93972.50;5115984;28;969;-47
2021/12/12 00:38:16;;;;;;;;;;;;;;;6.86;89.17;93971.53;5115909;28;1033;-47
2021/12/12 00:40:47;;;;;;;;;;;;;;;6.82;89.20;93973.69;5115836;28;1969;-47
2021/12/12 00:43:15;;;;;;;;;;;;;;;6.66;88.87;93974.53;5115901;28;977;-47
2021/12/12 00:45:41;;;;;;;;;;;;;;;6.35;88.71;93974.34;5116022;28;972;-47
2021/12/12 00:48:07;;;;;;;;;;;;;;;5.95;89.00;93976.75;5115883;28;977;-47
2021/12/12 00:50:37;;;;;;;;;;;;;;;6.00;90.49;93981.56;5115663;28;1051;-47
2021/12/12 00:53:05;;;;;;;;;;;;;;;6.15;90.07;93982.59;5115734;28;1067;-47
2021/12/12 00:55:32;;;;;;;;;;;;;;;6.24;89.35;93984.28;5115758;28;1025;-47
2021/12/12 00:57:58;;;;;;;;;;;;;;;6.24;88.87;93978.97;5115315;28;988;-47
2021/12/12 01:00:27;;;;;;;;;;;;;;;6.26;88.72;93986.78;5115384;28;2007;-47
2021/12/12 01:02:54;;;;;;;;;;;;;;;6.29;88.42;93986.44;5115580;28;1015;-47
2021/12/12 01:05:21;;;;;;;;;;;;;;;6.20;88.23;93976.78;5115588;28;965;-47
2021/12/12 01:07:47;;;;;;;;;;;;;;;6.16;88.41;93983.44;5115359;28;1008;-47
2021/12/12 01:10:19;;;;;;;;;;;;;;;6.12;88.41;93977.59;5115285;28;1040;-47
2021/12/12 01:12:45;;;;;;;;;;;;;;;6.08;87.53;93986.06;5115210;28;1048;-47
2021/12/12 01:15:19;;;;;;;;;;;;;;;5.81;87.15;93980.00;5115438;28;1109;-47
2021/12/12 01:17:48;;;;;;;;;;;;;;;5.77;88.43;93979.47;5115062;28;1107;-47
2021/12/12 01:20:26;;;;;;;;;;;;;;;5.75;88.19;93991.22;5114757;28;1909;-47
2021/12/12 01:22:54;;;;;;;;;;;;;;;5.59;88.86;93999.94;5115309;28;1072;-47
2021/12/12 01:25:23;;;;;;;;;;;;;;;5.70;89.31;93998.84;5114278;28;1052;-47
2021/12/12 01:27:49;;;;;;;;;;;;;;;5.76;88.40;94006.97;5115052;28;1068;-47
2021/12/12 01:30:16;;;;;;;;;;;;;;;5.78;87.79;94012.13;5114481;28;1296;-47
2021/12/12 01:32:44;;;;;;;;;;;;;;;5.68;88.13;94030.81;5115068;28;1104;-47
2021/12/12 01:35:19;;;;;;;;;;;;;;;5.52;87.87;94028.94;5114681;28;1032;-47
2021/12/12 01:40:33;;;;;;;;;;;;;;;5.61;87.87;94035.09;5114631;28;1914;-47
2021/12/12 01:43:04;;;;;;;;;;;;;;;5.61;88.57;94032.44;5114723;28;972;-47
2021/12/12 01:45:33;;;;;;;;;;;;;;;5.70;88.03;94039.44;5113553;28;1082;-47
2021/12/12 01:48:02;;;;;;;;;;;;;;;5.65;87.90;94024.03;5114500;28;1041;-47
2021/12/12 01:50:30;;;;;;;;;;;;;;;5.64;88.54;94025.00;5114774;28;969;-47
2021/12/12 01:52:57;;;;;;;;;;;;;;;5.67;88.15;94014.09;5114707;28;1052;-47
2021/12/12 01:55:26;;;;;;;;;;;;;;;5.71;87.90;94017.25;5114571;28;1047;-47
2021/12/12 01:57:54;;;;;;;;;;;;;;;5.79;88.20;94016.47;5114664;28;1083;-47
2021/12/12 02:00:34;;;;;;;;;;;;;;;5.98;87.61;94015.41;5114557;28;1902;-47
2021/12/12 02:03:01;;;;;;;;;;;;;;;6.14;86.98;94035.84;5114360;28;1076;-47
2021/12/12 02:05:28;;;;;;;;;;;;;;;6.17;86.63;94030.22;5114158;28;921;-47
2021/12/12 02:08:00;;;;;;;;;;;;;;;6.23;86.51;94035.69;5114537;28;972;-47
2021/12/12 02:10:28;;;;;;;;;;;;;;;6.32;86.49;94046.31;5114103;28;1151;-47
2021/12/12 02:12:56;;;;;;;;;;;;;;;6.35;86.46;94068.06;5114238;28;984;-47
2021/12/12 02:15:23;;;;;;;;;;;;;;;6.42;86.79;94070.94;5114334;28;1122;-47
2021/12/12 02:17:50;;;;;;;;;;;;;;;6.47;86.44;94065.13;5114287;28;1040;-47
2021/12/12 02:20:29;;;;;;;;;;;;;;;6.48;86.58;94064.13;5114121;28;1993;-47
2021/12/12 02:23:11;;;;;;;;;;;;;;;6.52;86.40;94063.63;5114101;28;1041;-47
2021/12/12 02:36:42;;;;;;;;;;;;;;;6.56;86.24;94072.94;5116273;28;1012;-47
2021/12/12 02:39:15;;;;;;;;;;;;;;;6.50;86.47;94067.47;5118385;28;992;-47
2021/12/12 02:41:42;;;;;;;;;;;;;;;6.59;86.60;94072.63;5118270;28;992;-47
2021/12/12 02:44:08;;;;;;;;;;;;;;;6.64;86.09;94069.50;5118420;28;992;-47
2021/12/12 02:46:37;;;;;;;;;;;;;;;6.66;85.89;94072.81;5118006;28;1032;-47
2021/12/12 02:49:10;;;;;;;;;;;;;;;6.47;86.70;94081.91;5118189;28;992;-47
2021/12/12 02:51:41;;;;;;;;;;;;;;;6.47;86.90;94094.31;5118028;28;1121;-47
2021/12/12 02:54:08;;;;;;;;;;;;;;;6.31;87.82;94090.63;5117903;28;1027;-47
2021/12/12 02:56:36;;;;;;;;;;;;;;;6.17;88.56;94085.94;5118191;28;980;-47
2021/12/12 02:59:08;;;;;;;;;;;;;;;6.04;89.09;94095.19;5117843;28;1047;-47
2021/12/12 03:01:40;;;;;;;;;;;;;;;6.13;88.92;94100.50;5118050;28;1914;-47
2021/12/12 03:04:07;;;;;;;;;;;;;;;6.22;88.21;94099.56;5117665;28;1135;-47
2021/12/12 03:06:35;;;;;;;;;;;;;;;6.32;87.85;94100.28;5117939;27;976;-47
2021/12/12 03:09:05;;;;;;;;;;;;;;;6.34;87.38;94100.13;5117851;28;1098;-47
2021/12/12 03:11:31;;;;;;;;;;;;;;;6.28;87.74;94114.84;5117819;28;972;-47
2021/12/12 03:13:58;;;;;;;;;;;;;;;6.16;88.01;94114.28;5117822;28;976;-47
2021/12/12 03:16:24;;;;;;;;;;;;;;;6.16;88.23;94116.13;5117798;27;1067;-47
2021/12/12 03:18:50;;;;;;;;;;;;;;;6.17;87.88;94131.91;5117495;28;1021;-47
2021/12/12 03:21:28;;;;;;;;;;;;;;;5.92;88.32;94135.38;5117590;28;1989;-47
2021/12/12 03:23:56;;;;;;;;;;;;;;;5.79;88.98;94135.81;5117275;28;1056;-47
2021/12/12 03:26:23;;;;;;;;;;;;;;;5.79;89.42;94133.16;5116092;28;966;-47
2021/12/12 03:28:50;;;;;;;;;;;;;;;5.88;89.25;94132.22;5117104;28;1280;-47
2021/12/12 03:31:21;;;;;;;;;;;;;;;5.98;88.10;94146.22;5117161;28;1103;-47
2021/12/12 03:33:47;;;;;;;;;;;;;;;5.79;88.83;94151.72;5117272;28;1059;-47
2021/12/12 03:36:14;;;;;;;;;;;;;;;5.94;88.81;94150.16;5117450;27;1055;-47
2021/12/12 03:38:42;;;;;;;;;;;;;;;5.94;88.44;94155.47;5116961;27;1095;-47
2021/12/12 03:41:10;;;;;;;;;;;;;;;5.97;88.65;94157.81;5117269;28;2000;-47
2021/12/12 03:43:36;;;;;;;;;;;;;;;5.97;88.88;94147.22;5117237;28;984;-47
2021/12/12 03:46:05;;;;;;;;;;;;;;;5.95;89.01;94149.19;5117169;28;1043;-47
2021/12/12 03:48:31;;;;;;;;;;;;;;;5.97;88.82;94160.47;5116023;28;1973;-47
2021/12/12 03:50:59;;;;;;;;;;;;;;;5.95;88.28;94159.81;5116818;28;1171;-47
2021/12/12 03:53:26;;;;;;;;;;;;;;;5.90;88.58;94164.75;5116914;28;1024;-47
2021/12/12 03:55:52;;;;;;;;;;;;;;;5.92;88.59;94173.38;5116985;28;1120;-47
2021/12/12 03:58:18;;;;;;;;;;;;;;;5.89;88.74;94176.31;5116908;28;1027;-47
2021/12/12 04:00:54;;;;;;;;;;;;;;;5.84;89.41;94179.47;5116730;28;1901;-47
2021/12/12 04:03:21;;;;;;;;;;;;;;;5.95;88.91;94173.06;5116601;28;1074;-47
2021/12/12 04:05:52;;;;;;;;;;;;;;;5.95;88.40;94183.69;5116422;28;1028;-47
2021/12/12 04:08:18;;;;;;;;;;;;;;;5.76;88.99;94187.34;5116759;28;1004;-47
2021/12/12 04:10:44;;;;;;;;;;;;;;;5.67;89.51;94196.22;5116680;28;1051;-47
2021/12/12 04:13:10;;;;;;;;;;;;;;;5.66;90.34;94205.19;5116540;28;1075;-47
2021/12/12 04:15:37;;;;;;;;;;;;;;;5.82;89.86;94207.97;5116382;28;1053;-47
2021/12/12 04:18:03;;;;;;;;;;;;;;;5.99;89.10;94208.91;5116592;28;1090;-47
2021/12/12 04:20:34;;;;;;;;;;;;;;;6.04;88.76;94211.09;5116286;28;1988;-47
2021/12/12 04:23:00;;;;;;;;;;;;;;;6.01;88.86;94214.06;5116224;28;1057;-47
2021/12/12 04:25:26;;;;;;;;;;;;;;;5.95;89.07;94212.88;5116488;28;1023;-47
2021/12/12 04:27:53;;;;;;;;;;;;;;;5.91;89.66;94222.09;5116215;28;1120;-47
2021/12/12 04:30:19;;;;;;;;;;;;;;;5.93;89.36;94220.13;5115782;28;1295;-47
2021/12/12 04:32:45;;;;;;;;;;;;;;;5.93;88.67;94224.59;5115953;28;1021;-47
2021/12/12 04:35:16;;;;;;;;;;;;;;;5.92;88.55;94222.91;5116044;28;996;-47
2021/12/12 04:37:44;;;;;;;;;;;;;;;5.97;88.40;94224.16;5116250;28;1032;-47
2021/12/12 04:40:12;;;;;;;;;;;;;;;5.98;88.36;94222.34;5116105;28;1982;-47
2021/12/12 04:42:39;;;;;;;;;;;;;;;5.94;88.22;94227.09;5115943;28;1099;-47
2021/12/12 04:45:14;;;;;;;;;;;;;;;5.96;88.35;94225.16;5116171;28;1055;-47
2021/12/12 04:50:37;;;;;;;;;;;;;;;5.98;88.68;94239.09;5115882;28;1068;-47
2021/12/12 04:53:06;;;;;;;;;;;;;;;5.87;88.17;94240.13;5115777;28;1068;-47
2021/12/12 04:55:51;;;;;;;;;;;;;;;5.62;89.00;94238.31;5115539;28;1885;-47
2021/12/12 04:58:32;;;;;;;;;;;;;;;5.62;89.91;94240.94;5115576;28;1032;-46
2021/12/12 05:01:02;;;;;;;;;;;;;;;5.70;89.51;94242.84;5114426;28;1934;-47
2021/12/12 05:03:31;;;;;;;;;;;;;;;5.59;90.01;94255.31;5115607;28;984;-47
2021/12/12 05:06:02;;;;;;;;;;;;;;;5.61;89.65;94250.69;5115684;28;1039;-47
2021/12/12 05:08:42;;;;;;;;;;;;;;;5.55;89.38;94253.97;5115416;28;965;-47
2021/12/12 05:11:10;;;;;;;;;;;;;;;5.59;89.52;94263.28;5116172;28;964;-47
2021/12/12 05:13:47;;;;;;;;;;;;;;;5.79;89.08;94266.63;5115118;27;1044;-47
2021/12/12 05:16:18;;;;;;;;;;;;;;;5.95;88.31;94265.94;5115097;28;1092;-47
2021/12/12 05:18:50;;;;;;;;;;;;;;;5.83;88.02;94267.16;5114948;28;1079;-47
2021/12/12 05:21:27;;;;;;;;;;;;;;;5.85;88.47;94271.28;5115297;28;1976;-47
2021/12/12 05:23:56;;;;;;;;;;;;;;;5.83;88.88;94269.78;5114184;28;974;-47
2021/12/12 05:26:27;;;;;;;;;;;;;;;5.95;88.58;94279.19;5115264;28;1062;-47
2021/12/12 05:28:58;;;;;;;;;;;;;;;5.91;88.71;94275.16;5114796;28;1283;-47
2021/12/12 05:31:24;;;;;;;;;;;;;;;6.00;88.50;94292.84;5115176;28;1051;-47
2021/12/12 05:33:52;;;;;;;;;;;;;;;6.05;88.27;94295.03;5114840;27;1056;-46
2021/12/12 05:36:19;;;;;;;;;;;;;;;6.04;88.08;94299.50;5115372;28;973;-47
2021/12/12 05:38:45;;;;;;;;;;;;;;;6.03;87.96;94300.50;5114770;28;1033;-47
2021/12/12 05:41:11;;;;;;;;;;;;;;;5.91;88.13;94309.66;5114943;28;1905;-47
2021/12/12 05:43:37;;;;;;;;;;;;;;;5.84;89.07;94312.09;5114721;28;977;-47
2021/12/12 05:46:04;;;;;;;;;;;;;;;5.86;89.00;94317.22;5114607;28;1025;-47
2021/12/12 05:48:30;;;;;;;;;;;;;;;5.79;88.83;94321.50;5114309;28;1096;-47
2021/12/12 05:50:56;;;;;;;;;;;;;;;5.77;88.65;94326.13;5114813;28;981;-47
2021/12/12 05:53:22;;;;;;;;;;;;;;;5.85;88.19;94329.66;5114727;28;1044;-49
2021/12/12 05:55:50;;;;;;;;;;;;;;;5.91;87.83;94330.03;5114554;28;1058;-47
2021/12/12 05:58:19;;;;;;;;;;;;;;;5.98;87.83;94334.63;5114475;28;1016;-48
2021/12/12 06:00:52;;;;;;;;;;;;;;;6.09;87.27;94328.25;5114340;28;1988;-47
2021/12/12 06:03:22;;;;;;;;;;;;;;;6.11;86.98;94331.56;5114242;28;1025;-48
2021/12/12 06:05:49;;;;;;;;;;;;;;;6.15;86.75;94345.38;5114719;28;1044;-47
2021/12/12 06:08:17;;;;;;;;;;;;;;;5.99;86.90;94338.09;5114272;28;1108;-48
2021/12/12 06:10:43;;;;;;;;;;;;;;;5.87;87.62;94342.78;5114228;28;1004;-47
2021/12/12 06:13:12;;;;;;;;;;;;;;;5.91;87.77;94352.09;5114494;28;1021;-47
2021/12/12 06:15:38;;;;;;;;;;;;;;;5.84;87.59;94351.03;5114437;28;1217;-47
2021/12/12 06:18:04;;;;;;;;;;;;;;;5.68;88.04;94365.81;5114105;28;991;-47
2021/12/12 06:20:31;;;;;;;;;;;;;;;5.73;88.54;94365.38;5114299;28;1984;-47
2021/12/12 06:26:19;;;;;;;;;;;;;;;5.87;87.94;94379.91;5114416;28;716;-47
2021/12/12 06:28:46;;;;;;;;;;;;;;;6.12;87.66;94394.28;5114111;28;1189;-48
2021/12/12 06:31:34;;;;;;;;;;;;;;;7.36;83.34;94399.41;5113800;28;2637;-48
2021/12/12 06:34:21;;;;;;;;;;;;;;;10.77;69.49;94399.22;5114292;28;1148;-48
2021/12/12 06:37:07;;;;;;;;;;;;;;;11.29;66.20;94399.19;5114482;28;2193;-47
2021/12/12 06:39:33;;;;;;;;;;;;;;;11.68;64.37;94399.91;5113010;28;1992;-47
2021/12/12 06:42:01;;;;;;;;;;;;;;;9.75;71.61;94394.84;5114270;28;1047;-47
2021/12/12 06:44:28;;;;;;;;;;;;;;;8.47;74.90;94393.00;5113889;28;1198;-48
2021/12/12 06:46:54;;;;;;;;;;;;;;;8.52;76.77;94403.19;5113900;28;1048;-47
2021/12/12 06:49:40;;;;;;;;;;;;;;;8.20;76.88;94402.13;5114154;28;2158;-47
2021/12/12 06:52:26;;;;;;;;;;;;;;;7.31;81.10;94406.19;5114137;28;2013;-47
2021/12/12 06:55:13;;;;;;;;;;;;;;;6.84;83.36;94410.09;5113692;28;1595;-47
2021/12/12 06:57:40;;;;;;;;;;;;;;;6.58;84.62;94412.72;5114024;28;1027;-47
2021/12/12 07:00:09;;;;;;;;;;;;;;;6.53;85.70;94420.34;5113811;28;1898;-47
2021/12/12 07:02:35;;;;;;;;;;;;;;;6.44;86.06;94417.59;5113603;28;1096;-48
2021/12/12 07:05:02;;;;;;;;;;;;;;;6.49;86.10;94432.25;5113780;28;989;-48
2021/12/12 07:07:28;;;;;;;;;;;;;;;6.53;86.13;94423.81;5113587;28;1100;-48
2021/12/12 07:09:54;;;;;;;;;;;;;;;6.62;86.16;94433.53;5113900;28;1095;-48
2021/12/12 07:12:41;;;;;;;;;;;;;;;6.73;86.01;94436.91;5113890;28;2064;-48
2021/12/12 07:15:28;;;;;;;;;;;;;;;6.82;85.60;94442.13;5113518;28;2348;-48
2021/12/12 07:18:12;;;;;;;;;;;;;;;6.87;85.80;94443.47;5113487;28;1053;-48
2021/12/12 07:20:38;;;;;;;;;;;;;;;6.78;86.25;94456.72;5112626;28;1906;-48
2021/12/12 07:23:06;;;;;;;;;;;;;;;7.00;85.48;94452.72;5114926;28;1068;-48
2021/12/12 07:25:34;;;;;;;;;;;;;;;7.13;85.26;94451.47;5117638;28;949;-48
2021/12/12 07:28:01;;;;;;;;;;;;;;;7.27;84.26;94450.88;5117548;28;2013;-48
2021/12/12 07:30:28;;;;;;;;;;;;;;;7.18;85.06;94459.81;5116839;28;1252;-48
2021/12/12 07:33:14;;;;;;;;;;;;;;;7.15;85.89;94450.31;5117420;28;2142;-47
2021/12/12 07:36:00;;;;;;;;;;;;;;;7.18;85.39;94468.59;5117460;28;2180;-47
2021/12/12 07:38:28;;;;;;;;;;;;;;;7.11;85.88;94475.53;5117436;27;1067;-47
2021/12/12 07:40:56;;;;;;;;;;;;;;;6.89;85.90;94486.69;5116960;28;1992;-47
2021/12/12 07:43:23;;;;;;;;;;;;;;;6.73;85.45;94498.84;5116775;28;1056;-47
2021/12/12 07:45:50;;;;;;;;;;;;;;;6.68;84.38;94501.16;5117127;28;1060;-47
2021/12/12 07:48:16;;;;;;;;;;;;;;;6.63;84.82;94508.72;5116908;28;1045;-47
2021/12/12 07:50:44;;;;;;;;;;;;;;;6.57;84.78;94512.00;5116821;28;1988;-50
2021/12/12 07:53:10;;;;;;;;;;;;;;;6.59;84.80;94516.16;5116902;28;985;-47
2021/12/12 07:55:44;;;;;;;;;;;;;;;6.59;85.21;94518.81;5117102;28;1068;-46
2021/12/12 07:58:29;;;;;;;;;;;;;;;6.77;84.33;94516.16;5116582;28;2056;-47
2021/12/12 08:01:15;;;;;;;;;;;;;;;6.78;84.13;94523.13;5116569;27;2174;-47
2021/12/12 08:03:42;;;;;;;;;;;;;;;6.81;84.46;94522.84;5116541;28;1025;-47
2021/12/12 08:06:09;;;;;;;;;;;;;;;6.78;84.20;94527.63;5116579;28;1039;-47
2021/12/12 08:08:36;;;;;;;;;;;;;;;6.66;83.56;94532.34;5116750;28;1016;-47
2021/12/12 08:11:03;;;;;;;;;;;;;;;6.67;84.71;94522.53;5116692;28;1045;-46
2021/12/12 08:13:31;;;;;;;;;;;;;;;6.82;85.16;94527.16;5116243;28;1096;-47
2021/12/12 08:16:17;;;;;;;;;;;;;;;6.88;85.65;94527.53;5116349;28;2093;-50
2021/12/12 08:19:03;;;;;;;;;;;;;;;7.00;85.75;94531.59;5116537;28;2164;-47
2021/12/12 08:21:49;;;;;;;;;;;;;;;7.04;84.38;94533.00;5116189;28;2046;-47
2021/12/12 08:24:16;;;;;;;;;;;;;;;7.01;85.52;94539.44;5116480;28;929;-47
2021/12/12 08:26:43;;;;;;;;;;;;;;;7.09;83.71;94546.63;5116184;28;969;-47
2021/12/12 08:29:11;;;;;;;;;;;;;;;7.15;82.64;94547.84;5116088;28;1204;-47
2021/12/12 08:31:37;;;;;;;;;;;;;;;7.24;83.41;94550.41;5116131;28;1032;-47
2021/12/12 08:34:23;;;;;;;;;;;;;;;7.34;83.75;94557.44;5116133;28;2060;-47
2021/12/12 08:37:08;;;;;;;;;;;;;;;7.37;83.92;94554.47;5116064;28;2674;-47
2021/12/12 08:39:54;;;;;;;;;;;;;;;7.29;80.62;94560.59;5115770;28;2046;-47
2021/12/12 08:42:26;;;;;;;;;;;;;;;7.16;80.35;94563.63;5115881;28;1047;-47
2021/12/12 08:44:56;;;;;;;;;;;;;;;7.17;80.24;94560.00;5115876;28;1189;-47
2021/12/12 08:47:23;;;;;;;;;;;;;;;7.22;78.43;94559.53;5115789;28;1231;-47
2021/12/12 08:49:49;;;;;;;;;;;;;;;7.29;77.24;94568.56;5115678;28;1057;-47
2021/12/12 08:52:20;;;;;;;;;;;;;;;7.47;76.41;94563.19;5115611;28;1036;-47
2021/12/12 08:55:13;;;;;;;;;;;;;;;7.58;75.53;94562.09;5115828;28;2038;-47
2021/12/12 08:58:05;;;;;;;;;;;;;;;7.78;74.76;94566.22;5115790;28;2036;-47
2021/12/12 09:00:34;;;;;;;;;;;;;;;7.57;74.80;94563.94;5115358;27;1914;-47
2021/12/12 09:03:01;;;;;;;;;;;;;;;7.70;75.77;94560.84;5115358;27;1035;-48
2021/12/12 09:05:29;;;;;;;;;;;;;;;7.92;75.32;94570.09;5115615;28;1044;-48
2021/12/12 09:08:00;;;;;;;;;;;;;;;7.93;75.24;94561.13;5115634;28;1055;-48
2021/12/12 09:10:33;;;;;;;;;;;;;;;8.11;74.73;94560.19;5115184;28;1029;-48
2021/12/12 09:13:05;;;;;;;;;;;;;;;8.12;74.69;94565.38;5115304;28;1881;-48
2021/12/12 09:15:38;;;;;;;;;;;;;;;7.97;73.40;94574.97;5115056;28;953;-48
2021/12/12 09:18:11;;;;;;;;;;;;;;;7.90;73.43;94574.75;5115340;28;1044;-48
2021/12/12 09:20:50;;;;;;;;;;;;;;;7.86;73.64;94575.22;5115202;28;1922;-48
2021/12/12 09:23:18;;;;;;;;;;;;;;;7.77;73.60;94569.03;5115155;28;1064;-48
2021/12/12 09:25:51;;;;;;;;;;;;;;;7.71;73.96;94574.97;5114794;28;1037;-48
2021/12/12 09:28:26;;;;;;;;;;;;;;;7.86;73.62;94570.75;5115284;28;1201;-48
2021/12/12 09:30:54;;;;;;;;;;;;;;;7.87;73.71;94576.88;5114452;28;1904;-48
2021/12/12 09:33:33;;;;;;;;;;;;;;;7.82;71.60;94578.19;5114857;28;1020;-48
2021/12/12 09:36:04;;;;;;;;;;;;;;;7.73;72.86;94584.47;5115144;28;984;-48
2021/12/12 09:38:32;;;;;;;;;;;;;;;7.69;73.45;94574.31;5115362;28;1023;-48
2021/12/12 09:41:01;;;;;;;;;;;;;;;7.55;73.09;94583.69;5114500;28;1978;-48
2021/12/12 09:43:46;;;;;;;;;;;;;;;7.72;74.05;94582.81;5114914;28;1055;-48
2021/12/12 09:46:38;;;;;;;;;;;;;;;7.79;74.51;94583.81;5113897;28;1072;-48
2021/12/12 09:52:12;;;;;;;;;;;;;;;7.87;74.36;94585.69;5114519;28;1065;-48
2021/12/12 09:54:58;;;;;;;;;;;;;;;7.90;72.60;94585.38;5114360;28;977;-48
2021/12/12 09:57:36;;;;;;;;;;;;;;;7.98;72.20;94587.25;5083171;28;1173;-48
2021/12/12 10:00:08;;;;;;;;;;;;;;;8.11;72.10;94594.81;5114513;28;1990;-48
2021/12/12 10:02:37;;;;;;;;;;;;;;;8.24;71.51;94589.88;5114550;28;992;-48
2021/12/12 10:05:30;;;;;;;;;;;;;;;8.20;71.14;94592.03;5114609;28;1055;-48
2021/12/12 10:07:56;;;;;;;;;;;;;;;7.97;72.21;94591.75;5090881;28;1210;-48
2021/12/12 10:10:30;;;;;;;;;;;;;;;7.90;71.93;94604.03;5114066;28;1081;-48
2021/12/12 10:13:05;;;;;;;;;;;;;;;7.90;71.83;94597.88;5114265;28;1084;-48
2021/12/12 10:15:37;;;;;;;;;;;;;;;8.09;72.18;94604.78;5114486;28;1116;-48
2021/12/12 10:18:08;;;;;;;;;;;;;;;8.23;71.66;94598.84;5114478;28;1051;-48
2021/12/12 10:20:34;;;;;;;;;;;;;;;8.38;71.33;94612.38;5114246;28;1952;-48
2021/12/12 10:23:00;;;;;;;;;;;;;;;8.44;71.45;94608.28;5114334;28;976;-48
2021/12/12 10:25:35;;;;;;;;;;;;;;;8.26;71.01;94611.84;5114484;28;961;-48
2021/12/12 10:28:03;;;;;;;;;;;;;;;8.16;71.81;94605.81;5114374;28;1020;-48
2021/12/12 10:30:39;;;;;;;;;;;;;;;8.00;70.78;94606.56;5113525;28;1275;-48
2021/12/12 10:33:08;;;;;;;;;;;;;;;8.19;71.24;94609.00;5114626;28;1064;-48
2021/12/12 10:35:42;;;;;;;;;;;;;;;9.36;67.47;94609.13;5114001;28;1040;-48
2021/12/12 10:38:10;;;;;;;;;;;;;;;9.02;67.63;94614.59;5113993;28;1120;-47
2021/12/12 10:40:45;;;;;;;;;;;;;;;8.55;68.67;94610.66;5114196;28;1910;-47
2021/12/12 10:43:13;;;;;;;;;;;;;;;8.43;68.78;94614.63;5114136;28;992;-47
2021/12/12 10:45:46;;;;;;;;;;;;;;;8.29;68.80;94611.53;5114129;28;1007;-47
2021/12/12 10:48:17;;;;;;;;;;;;;;;8.27;71.78;94615.34;5113912;28;1084;-48
2021/12/12 10:51:00;;;;;;;;;;;;;;;8.42;70.11;94608.44;5113860;28;1133;-48
2021/12/12 10:53:31;;;;;;;;;;;;;;;8.17;71.54;94610.13;5114003;28;980;-48
2021/12/12 10:56:14;;;;;;;;;;;;;;;8.02;70.61;94613.41;5113791;28;1049;-48
2021/12/12 10:58:43;;;;;;;;;;;;;;;8.06;70.47;94616.56;5117922;28;1168;-48
2021/12/12 11:01:12;;;;;;;;;;;;;;;7.99;70.00;94619.03;5117911;28;1989;-48
2021/12/12 11:03:44;;;;;;;;;;;;;;;8.00;70.11;94623.38;5117892;28;1075;-48
2021/12/12 11:06:22;;;;;;;;;;;;;;;7.73;70.93;94623.56;5117797;28;1199;-48
2021/12/12 11:08:54;;;;;;;;;;;;;;;7.50;71.27;94629.38;5117687;28;1049;-48
2021/12/12 11:11:25;;;;;;;;;;;;;;;7.52;70.82;94632.72;5117684;28;1896;-48
2021/12/12 11:14:14;;;;;;;;;;;;;;;7.47;71.48;94628.84;5117513;28;1083;-48
2021/12/12 11:16:43;;;;;;;;;;;;;;;7.40;72.66;94629.47;5109663;28;2031;-47
2021/12/12 11:19:14;;;;;;;;;;;;;;;7.45;72.95;94631.66;5117662;28;1024;-48
2021/12/12 11:21:49;;;;;;;;;;;;;;;7.49;72.08;94633.03;5117242;28;1910;-48
2021/12/12 11:24:24;;;;;;;;;;;;;;;7.50;71.95;94632.03;5117720;27;1051;-48
2021/12/12 11:26:50;;;;;;;;;;;;;;;7.59;71.56;94641.75;5117429;28;1142;-48
2021/12/12 11:29:17;;;;;;;;;;;;;;;7.57;70.87;94643.75;5116882;28;1307;-48
2021/12/12 11:31:46;;;;;;;;;;;;;;;7.48;70.97;94635.84;5117503;28;1056;-48
2021/12/12 11:34:13;;;;;;;;;;;;;;;7.54;71.35;94643.22;5117248;28;1068;-48
2021/12/12 11:36:49;;;;;;;;;;;;;;;7.59;70.85;94654.22;5117340;28;1040;-48
2021/12/12 11:39:17;;;;;;;;;;;;;;;7.41;70.32;94644.44;5117204;27;1998;-48
2021/12/12 11:41:59;;;;;;;;;;;;;;;7.20;71.87;94649.25;5117269;28;1987;-48
2021/12/12 11:44:28;;;;;;;;;;;;;;;7.15;71.98;94652.38;5116929;28;1961;-48
2021/12/12 11:47:05;;;;;;;;;;;;;;;7.13;72.46;94654.34;5117263;28;1043;-48
2021/12/12 11:49:40;;;;;;;;;;;;;;;7.10;71.30;94652.00;5116946;28;980;-47
2021/12/12 11:52:13;;;;;;;;;;;;;;;7.06;73.32;94650.63;5116852;28;973;-48
2021/12/12 11:55:02;;;;;;;;;;;;;;;7.12;71.87;94651.84;5117391;27;977;-48
2021/12/12 11:57:32;;;;;;;;;;;;;;;7.13;72.69;94651.69;5108663;28;1857;-48
2021/12/12 12:00:08;;;;;;;;;;;;;;;7.13;72.98;94654.34;5116816;28;1909;-47
2021/12/12 12:02:39;;;;;;;;;;;;;;;7.02;72.64;94655.41;5116645;28;1044;-48
2021/12/12 12:05:08;;;;;;;;;;;;;;;7.04;71.25;94661.41;5116826;27;1043;-48
2021/12/12 12:07:58;;;;;;;;;;;;;;;7.10;72.09;94670.59;5116476;28;1013;-48
2021/12/12 12:10:39;;;;;;;;;;;;;;;7.13;71.32;94662.34;5115889;28;2019;-48
2021/12/12 12:13:27;;;;;;;;;;;;;;;7.07;71.87;94662.91;5116299;28;981;-48
2021/12/12 12:15:53;;;;;;;;;;;;;;;7.07;71.89;94662.91;5116675;28;1052;-48
2021/12/12 12:18:31;;;;;;;;;;;;;;;7.11;71.34;94671.41;5116600;28;1051;-48
2021/12/12 12:21:18;;;;;;;;;;;;;;;7.11;72.04;94669.59;5116259;28;1913;-49
2021/12/12 12:26:56;;;;;;;;;;;;;;;7.17;72.11;94665.50;5116269;28;1025;-48
2021/12/12 12:29:22;;;;;;;;;;;;;;;7.33;71.95;94680.78;5109976;28;1320;-48
2021/12/12 12:32:06;;;;;;;;;;;;;;;7.38;71.75;94678.47;5116100;28;1071;-48
2021/12/12 12:34:44;;;;;;;;;;;;;;;7.32;71.85;94684.41;5116207;28;1047;-48
2021/12/12 12:37:29;;;;;;;;;;;;;;;7.35;72.38;94684.94;5115959;28;1061;-48
2021/12/12 12:40:01;;;;;;;;;;;;;;;7.40;72.48;94695.13;5115830;28;1914;-48
2021/12/12 12:42:47;;;;;;;;;;;;;;;7.31;72.68;94691.56;5115767;28;1118;-48
2021/12/12 12:45:13;;;;;;;;;;;;;;;7.23;72.43;94692.31;5084247;28;1153;-48
2021/12/12 12:47:57;;;;;;;;;;;;;;;7.18;73.08;94699.91;5116198;28;1029;-48
2021/12/12 12:50:36;;;;;;;;;;;;;;;7.24;72.39;94712.59;5115783;28;1043;-48
2021/12/12 12:53:21;;;;;;;;;;;;;;;7.12;72.41;94727.09;5115663;28;1071;-48
2021/12/12 12:56:06;;;;;;;;;;;;;;;6.88;73.29;94730.31;5115503;28;1029;-48
2021/12/12 12:58:32;;;;;;;;;;;;;;;6.79;74.10;94725.91;5115735;28;1051;-48
2021/12/12 13:01:05;;;;;;;;;;;;;;;6.67;73.47;94727.91;5115423;28;1906;-48
2021/12/12 13:03:42;;;;;;;;;;;;;;;6.78;72.52;94735.69;5115659;28;1063;-48
2021/12/12 13:06:28;;;;;;;;;;;;;;;6.74;72.60;94734.31;5115338;28;925;-48
2021/12/12 13:09:14;;;;;;;;;;;;;;;6.62;72.49;94739.00;5083813;28;1295;-48
2021/12/12 13:11:48;;;;;;;;;;;;;;;6.55;72.45;94745.06;5115600;28;1003;-48
2021/12/12 13:14:13;;;;;;;;;;;;;;;6.41;72.24;94747.19;5115516;28;995;-48
2021/12/12 13:16:40;;;;;;;;;;;;;;;6.44;72.64;94754.88;5115385;28;1000;-48
2021/12/12 13:19:13;;;;;;;;;;;;;;;6.37;72.88;94753.75;5115401;28;1059;-48
2021/12/12 13:22:03;;;;;;;;;;;;;;;6.49;72.28;94767.72;5114416;28;1906;-48
2021/12/12 13:24:36;;;;;;;;;;;;;;;6.51;72.29;94770.25;5115405;28;977;-48
2021/12/12 13:27:12;;;;;;;;;;;;;;;6.34;72.22;94775.31;5115194;28;1145;-48
2021/12/12 13:29:59;;;;;;;;;;;;;;;6.18;73.08;94769.75;5114705;28;1448;-48
2021/12/12 13:32:35;;;;;;;;;;;;;;;6.25;72.31;94774.34;5114713;28;1092;-48
2021/12/12 13:35:04;;;;;;;;;;;;;;;6.27;72.79;94773.38;5115289;28;1060;-48
2021/12/12 13:37:36;;;;;;;;;;;;;;;6.13;72.51;94775.50;5115269;28;964;-48
2021/12/12 13:40:20;;;;;;;;;;;;;;;6.08;73.22;94782.22;5115020;28;1971;-48
2021/12/12 13:42:56;;;;;;;;;;;;;;;5.92;72.91;94788.06;5114676;28;1059;-48
2021/12/12 13:45:31;;;;;;;;;;;;;;;5.84;72.93;94799.38;5114674;28;925;-48
2021/12/12 13:48:09;;;;;;;;;;;;;;;5.74;73.66;94799.41;5114675;28;1092;-48
2021/12/12 13:50:53;;;;;;;;;;;;;;;5.79;74.00;94805.13;5114868;28;1000;-48
2021/12/12 13:53:30;;;;;;;;;;;;;;;5.78;73.66;94813.22;5114535;28;1046;-48
2021/12/12 13:56:11;;;;;;;;;;;;;;;5.79;74.19;94815.75;5114453;28;1052;-48
2021/12/12 13:58:37;;;;;;;;;;;;;;;5.83;73.45;94811.00;5114658;28;1039;-47
2021/12/12 14:01:08;;;;;;;;;;;;;;;5.83;73.95;94822.44;5114342;28;1984;-47